sensor_id;sensor_type;location;lat;lon;timestamp;temperature;humidity
19930;DHT22;10127;47.780;9.606;2024-01-06T00:01:42;6.10;99.90
19930;DHT22;10127;47.780;9.606;2024-01-06T00:04:08;6.10;99.90
19930;DHT22;10127;47.780;9.606;2024-01-06T00:06:34;6.10;99.90
19930;DHT22;10127;47.780;9.606;2024-01-06T00:08:59;6.10;99.90
19930;DHT22;10127;47.780;9.606;2024-01-06T00:11:25;6.20;99.90
19930;DHT22;10127;47.780;9.606;2024-01-06T00:13:50;6.20;99.90
19930;DHT22;10127;47.780;9.606;2024-01-06T00:16:19;6.20;99.90
19930;DHT22;10127;47.780;9.606;2024-01-06T00:18:46;6.30;99.90
19930;DHT22;10127;47.780;9.606;2024-01-06T00:21:12;6.40;99.90
19930;DHT22;10127;47.780;9.606;2024-01-06T00:23:37;6.30;99.90
19930;DHT22;10127;47.780;9.606;2024-01-06T00:26:04;6.10;99.90
19930;DHT22;10127;47.780;9.606;2024-01-06T00:28:29;6.00;99.90
19930;DHT22;10127;47.780;9.606;2024-01-06T00:30:55;6.00;99.90
19930;DHT22;10127;47.780;9.606;2024-01-06T00:33:21;6.00;99.90
19930;DHT22;10127;47.780;9.606;2024-01-06T00:35:46;6.00;99.90
19930;DHT22;10127;47.780;9.606;2024-01-06T00:38:12;6.00;99.90
19930;DHT22;10127;47.780;9.606;2024-01-06T00:40:37;6.00;99.90
19930;DHT22;10127;47.780;9.606;2024-01-06T00:43:04;6.00;99.90
19930;DHT22;10127;47.780;9.606;2024-01-06T00:45:29;6.00;99.90
19930;DHT22;10127;47.780;9.606;2024-01-06T00:47:56;6.00;99.90
19930;DHT22;10127;47.780;9.606;2024-01-06T00:50:21;6.00;99.90
19930;DHT22;10127;47.780;9.606;2024-01-06T00:52:47;6.00;99.90
19930;DHT22;10127;47.780;9.606;2024-01-06T00:55:12;5.90;99.90
19930;DHT22;10127;47.780;9.606;2024-01-06T00:57:38;5.90;99.90
19930;DHT22;10127;47.780;9.606;2024-01-06T01:00:05;5.90;99.90
19930;DHT22;10127;47.780;9.606;2024-01-06T01:02:31;5.90;99.90
19930;DHT22;10127;47.780;9.606;2024-01-06T01:04:56;6.00;99.90
19930;DHT22;10127;47.780;9.606;2024-01-06T01:07:22;6.00;99.90
19930;DHT22;10127;47.780;9.606;2024-01-06T01:09:48;6.00;99.90
19930;DHT22;10127;47.780;9.606;2024-01-06T01:12:14;6.00;99.90
19930;DHT22;10127;47.780;9.606;2024-01-06T01:14:39;6.00;99.90
19930;DHT22;10127;47.780;9.606;2024-01-06T01:17:05;6.00;99.90
19930;DHT22;10127;47.780;9.606;2024-01-06T01:19:30;6.00;99.90
19930;DHT22;10127;47.780;9.606;2024-01-06T01:21:56;6.00;99.90
19930;DHT22;10127;47.780;9.606;2024-01-06T01:24:22;6.00;99.90
19930;DHT22;10127;47.780;9.606;2024-01-06T01:26:54;6.00;99.90
19930;DHT22;10127;47.780;9.606;2024-01-06T01:29:19;5.90;99.90
19930;DHT22;10127;47.780;9.606;2024-01-06T01:31:46;6.00;99.90
19930;DHT22;10127;47.780;9.606;2024-01-06T01:34:11;5.90;99.90
19930;DHT22;10127;47.780;9.606;2024-01-06T01:36:37;5.80;99.90
19930;DHT22;10127;47.780;9.606;2024-01-06T01:39:03;5.70;99.90
19930;DHT22;10127;47.780;9.606;2024-01-06T01:41:28;5.70;99.90
19930;DHT22;10127;47.780;9.606;2024-01-06T01:43:54;5.80;99.90
19930;DHT22;10127;47.780;9.606;2024-01-06T01:46:27;5.90;99.90
19930;DHT22;10127;47.780;9.606;2024-01-06T01:48:54;5.80;99.90
19930;DHT22;10127;47.780;9.606;2024-01-06T01:51:21;5.80;99.90
19930;DHT22;10127;47.780;9.606;2024-01-06T01:53:47;5.80;99.90
19930;DHT22;10127;47.780;9.606;2024-01-06T01:56:13;5.80;99.90
19930;DHT22;10127;47.780;9.606;2024-01-06T01:58:38;5.80;99.90
19930;DHT22;10127;47.780;9.606;2024-01-06T02:01:04;5.80;99.90
19930;DHT22;10127;47.780;9.606;2024-01-06T02:03:30;5.80;99.90
19930;DHT22;10127;47.780;9.606;2024-01-06T02:05:56;5.80;99.90
19930;DHT22;10127;47.780;9.606;2024-01-06T02:08:22;5.70;99.90
19930;DHT22;10127;47.780;9.606;2024-01-06T02:10:48;5.70;99.90
19930;DHT22;10127;47.780;9.606;2024-01-06T02:13:14;5.70;99.90
19930;DHT22;10127;47.780;9.606;2024-01-06T02:15:46;5.60;99.90
19930;DHT22;10127;47.780;9.606;2024-01-06T02:18:24;5.60;99.90
19930;DHT22;10127;47.780;9.606;2024-01-06T02:20:51;5.60;99.90
19930;DHT22;10127;47.780;9.606;2024-01-06T02:23:18;5.70;99.90
19930;DHT22;10127;47.780;9.606;2024-01-06T02:25:43;5.70;99.90
19930;DHT22;10127;47.780;9.606;2024-01-06T02:28:09;5.70;99.90
19930;DHT22;10127;47.780;9.606;2024-01-06T02:30:34;5.70;99.90
19930;DHT22;10127;47.780;9.606;2024-01-06T02:33:00;5.70;99.90
19930;DHT22;10127;47.780;9.606;2024-01-06T02:35:26;5.70;99.90
19930;DHT22;10127;47.780;9.606;2024-01-06T02:37:51;5.70;99.90
19930;DHT22;10127;47.780;9.606;2024-01-06T02:40:17;5.60;99.90
19930;DHT22;10127;47.780;9.606;2024-01-06T02:42:42;5.60;99.90
19930;DHT22;10127;47.780;9.606;2024-01-06T02:45:08;5.60;99.90
19930;DHT22;10127;47.780;9.606;2024-01-06T02:47:35;5.60;99.90
19930;DHT22;10127;47.780;9.606;2024-01-06T02:50:00;5.60;99.90
19930;DHT22;10127;47.780;9.606;2024-01-06T02:52:26;5.70;99.90
19930;DHT22;10127;47.780;9.606;2024-01-06T02:54:51;5.70;99.90
19930;DHT22;10127;47.780;9.606;2024-01-06T02:57:17;5.70;99.90
19930;DHT22;10127;47.780;9.606;2024-01-06T02:59:43;5.70;99.90
19930;DHT22;10127;47.780;9.606;2024-01-06T03:02:08;5.80;99.90
19930;DHT22;10127;47.780;9.606;2024-01-06T03:04:34;5.80;99.90
19930;DHT22;10127;47.780;9.606;2024-01-06T03:07:06;5.80;99.90
19930;DHT22;10127;47.780;9.606;2024-01-06T03:09:38;5.80;99.90
19930;DHT22;10127;47.780;9.606;2024-01-06T03:12:05;5.80;99.90
19930;DHT22;10127;47.780;9.606;2024-01-06T03:14:31;5.80;99.90
19930;DHT22;10127;47.780;9.606;2024-01-06T03:16:57;5.70;99.90
19930;DHT22;10127;47.780;9.606;2024-01-06T03:19:23;5.60;99.90
19930;DHT22;10127;47.780;9.606;2024-01-06T03:21:51;5.60;99.90
19930;DHT22;10127;47.780;9.606;2024-01-06T03:24:17;5.60;99.90
19930;DHT22;10127;47.780;9.606;2024-01-06T03:26:42;5.60;99.90
19930;DHT22;10127;47.780;9.606;2024-01-06T03:29:08;5.60;99.90
19930;DHT22;10127;47.780;9.606;2024-01-06T03:31:33;5.70;99.90
19930;DHT22;10127;47.780;9.606;2024-01-06T03:33:59;5.60;99.90
19930;DHT22;10127;47.780;9.606;2024-01-06T03:36:24;5.60;99.90
19930;DHT22;10127;47.780;9.606;2024-01-06T03:38:50;5.70;99.90
19930;DHT22;10127;47.780;9.606;2024-01-06T03:41:16;5.70;99.90
19930;DHT22;10127;47.780;9.606;2024-01-06T03:43:41;5.70;99.90
19930;DHT22;10127;47.780;9.606;2024-01-06T03:46:07;5.70;99.90
19930;DHT22;10127;47.780;9.606;2024-01-06T03:48:32;5.70;99.90
19930;DHT22;10127;47.780;9.606;2024-01-06T03:50:59;5.80;99.90
19930;DHT22;10127;47.780;9.606;2024-01-06T03:53:25;5.50;99.90
19930;DHT22;10127;47.780;9.606;2024-01-06T03:55:51;5.50;99.90
19930;DHT22;10127;47.780;9.606;2024-01-06T03:58:17;5.40;99.90
19930;DHT22;10127;47.780;9.606;2024-01-06T04:00:43;5.40;99.90
19930;DHT22;10127;47.780;9.606;2024-01-06T04:03:08;5.50;99.90
19930;DHT22;10127;47.780;9.606;2024-01-06T04:05:34;5.50;99.90
19930;DHT22;10127;47.780;9.606;2024-01-06T04:07:59;5.60;99.90
19930;DHT22;10127;47.780;9.606;2024-01-06T04:10:25;5.70;99.90
19930;DHT22;10127;47.780;9.606;2024-01-06T04:12:50;5.70;99.90
19930;DHT22;10127;47.780;9.606;2024-01-06T04:15:16;5.60;99.90
19930;DHT22;10127;47.780;9.606;2024-01-06T04:17:42;5.60;99.90
19930;DHT22;10127;47.780;9.606;2024-01-06T04:20:07;5.70;99.90
19930;DHT22;10127;47.780;9.606;2024-01-06T04:22:33;5.70;99.90
19930;DHT22;10127;47.780;9.606;2024-01-06T04:24:59;5.70;99.90
19930;DHT22;10127;47.780;9.606;2024-01-06T04:27:24;5.60;99.90
19930;DHT22;10127;47.780;9.606;2024-01-06T04:29:50;5.70;99.90
19930;DHT22;10127;47.780;9.606;2024-01-06T04:32:18;5.70;99.90
19930;DHT22;10127;47.780;9.606;2024-01-06T04:34:44;5.60;99.90
19930;DHT22;10127;47.780;9.606;2024-01-06T04:37:09;5.50;99.90
19930;DHT22;10127;47.780;9.606;2024-01-06T04:39:35;5.60;99.90
19930;DHT22;10127;47.780;9.606;2024-01-06T04:42:00;5.50;99.90
19930;DHT22;10127;47.780;9.606;2024-01-06T04:44:26;5.30;99.90
19930;DHT22;10127;47.780;9.606;2024-01-06T04:46:51;5.20;99.90
19930;DHT22;10127;47.780;9.606;2024-01-06T04:49:17;5.10;99.90
19930;DHT22;10127;47.780;9.606;2024-01-06T04:51:43;5.20;99.90
19930;DHT22;10127;47.780;9.606;2024-01-06T04:54:08;5.40;99.90
19930;DHT22;10127;47.780;9.606;2024-01-06T04:56:34;5.40;99.90
19930;DHT22;10127;47.780;9.606;2024-01-06T04:58:59;5.50;99.90
19930;DHT22;10127;47.780;9.606;2024-01-06T05:01:25;5.50;99.90
19930;DHT22;10127;47.780;9.606;2024-01-06T05:03:50;5.50;99.90
19930;DHT22;10127;47.780;9.606;2024-01-06T05:06:16;5.30;99.90
19930;DHT22;10127;47.780;9.606;2024-01-06T05:08:41;5.10;99.90
19930;DHT22;10127;47.780;9.606;2024-01-06T05:11:10;5.10;99.90
19930;DHT22;10127;47.780;9.606;2024-01-06T05:13:36;5.20;99.90
19930;DHT22;10127;47.780;9.606;2024-01-06T05:16:02;5.30;99.90
19930;DHT22;10127;47.780;9.606;2024-01-06T05:18:28;5.30;99.90
19930;DHT22;10127;47.780;9.606;2024-01-06T05:20:54;5.30;99.90
19930;DHT22;10127;47.780;9.606;2024-01-06T05:23:20;5.40;99.90
19930;DHT22;10127;47.780;9.606;2024-01-06T05:25:46;5.30;99.90
19930;DHT22;10127;47.780;9.606;2024-01-06T05:28:12;5.40;99.90
19930;DHT22;10127;47.780;9.606;2024-01-06T05:30:37;5.40;99.90
19930;DHT22;10127;47.780;9.606;2024-01-06T05:33:03;5.30;99.90
19930;DHT22;10127;47.780;9.606;2024-01-06T05:35:29;5.30;99.90
19930;DHT22;10127;47.780;9.606;2024-01-06T05:38:03;5.30;99.90
19930;DHT22;10127;47.780;9.606;2024-01-06T05:40:29;5.30;99.90
19930;DHT22;10127;47.780;9.606;2024-01-06T05:42:54;5.30;99.90
19930;DHT22;10127;47.780;9.606;2024-01-06T05:45:27;5.40;99.90
19930;DHT22;10127;47.780;9.606;2024-01-06T05:48:00;5.50;99.90
19930;DHT22;10127;47.780;9.606;2024-01-06T05:50:25;5.40;99.90
19930;DHT22;10127;47.780;9.606;2024-01-06T05:52:51;5.30;99.90
19930;DHT22;10127;47.780;9.606;2024-01-06T05:55:17;5.30;99.90
19930;DHT22;10127;47.780;9.606;2024-01-06T05:57:42;5.20;99.90
19930;DHT22;10127;47.780;9.606;2024-01-06T06:00:09;5.00;99.90
19930;DHT22;10127;47.780;9.606;2024-01-06T06:02:34;5.00;99.90
19930;DHT22;10127;47.780;9.606;2024-01-06T06:05:00;5.00;99.90
19930;DHT22;10127;47.780;9.606;2024-01-06T06:07:26;4.90;99.90
19930;DHT22;10127;47.780;9.606;2024-01-06T06:09:51;5.00;99.90
19930;DHT22;10127;47.780;9.606;2024-01-06T06:12:18;4.90;99.90
19930;DHT22;10127;47.780;9.606;2024-01-06T06:14:44;4.90;99.90
19930;DHT22;10127;47.780;9.606;2024-01-06T06:17:09;4.90;99.90
19930;DHT22;10127;47.780;9.606;2024-01-06T06:19:35;4.90;99.90
19930;DHT22;10127;47.780;9.606;2024-01-06T06:22:00;4.90;99.90
19930;DHT22;10127;47.780;9.606;2024-01-06T06:24:26;4.90;99.90
19930;DHT22;10127;47.780;9.606;2024-01-06T06:26:51;4.80;99.90
19930;DHT22;10127;47.780;9.606;2024-01-06T06:29:17;4.80;99.90
19930;DHT22;10127;47.780;9.606;2024-01-06T06:31:42;4.80;99.90
19930;DHT22;10127;47.780;9.606;2024-01-06T06:34:12;4.70;99.90
19930;DHT22;10127;47.780;9.606;2024-01-06T06:36:37;4.70;99.90
19930;DHT22;10127;47.780;9.606;2024-01-06T06:39:03;4.70;99.90
19930;DHT22;10127;47.780;9.606;2024-01-06T06:41:29;4.70;99.90
19930;DHT22;10127;47.780;9.606;2024-01-06T06:43:58;4.80;99.90
19930;DHT22;10127;47.780;9.606;2024-01-06T06:46:25;4.80;99.90
19930;DHT22;10127;47.780;9.606;2024-01-06T06:48:50;4.70;99.90
19930;DHT22;10127;47.780;9.606;2024-01-06T06:51:16;4.60;99.90
19930;DHT22;10127;47.780;9.606;2024-01-06T06:53:42;4.60;99.90
19930;DHT22;10127;47.780;9.606;2024-01-06T06:56:07;4.60;99.90
19930;DHT22;10127;47.780;9.606;2024-01-06T06:58:33;4.60;99.90
19930;DHT22;10127;47.780;9.606;2024-01-06T07:00:58;4.60;99.90
19930;DHT22;10127;47.780;9.606;2024-01-06T07:03:24;4.50;99.90
19930;DHT22;10127;47.780;9.606;2024-01-06T07:05:49;4.50;99.90
19930;DHT22;10127;47.780;9.606;2024-01-06T07:08:15;4.50;99.90
19930;DHT22;10127;47.780;9.606;2024-01-06T07:10:41;4.60;99.90
19930;DHT22;10127;47.780;9.606;2024-01-06T07:13:06;4.60;99.90
19930;DHT22;10127;47.780;9.606;2024-01-06T07:15:32;4.50;99.90
19930;DHT22;10127;47.780;9.606;2024-01-06T07:17:58;4.40;99.90
19930;DHT22;10127;47.780;9.606;2024-01-06T07:20:23;4.40;99.90
19930;DHT22;10127;47.780;9.606;2024-01-06T07:22:49;4.50;99.90
19930;DHT22;10127;47.780;9.606;2024-01-06T07:25:14;4.50;99.90
19930;DHT22;10127;47.780;9.606;2024-01-06T07:27:40;4.60;99.90
19930;DHT22;10127;47.780;9.606;2024-01-06T07:30:06;4.70;99.90
19930;DHT22;10127;47.780;9.606;2024-01-06T07:32:33;4.70;99.90
19930;DHT22;10127;47.780;9.606;2024-01-06T07:34:59;4.80;99.90
19930;DHT22;10127;47.780;9.606;2024-01-06T07:37:24;4.80;99.90
19930;DHT22;10127;47.780;9.606;2024-01-06T07:39:51;4.80;99.90
19930;DHT22;10127;47.780;9.606;2024-01-06T07:42:16;4.60;99.90
19930;DHT22;10127;47.780;9.606;2024-01-06T07:44:42;4.70;99.90
19930;DHT22;10127;47.780;9.606;2024-01-06T07:47:07;4.70;99.90
19930;DHT22;10127;47.780;9.606;2024-01-06T07:49:33;4.70;99.90
19930;DHT22;10127;47.780;9.606;2024-01-06T07:51:59;4.80;99.90
19930;DHT22;10127;47.780;9.606;2024-01-06T07:54:25;4.90;99.90
19930;DHT22;10127;47.780;9.606;2024-01-06T07:56:50;4.90;99.90
19930;DHT22;10127;47.780;9.606;2024-01-06T07:59:16;4.90;99.90
19930;DHT22;10127;47.780;9.606;2024-01-06T08:01:41;5.00;99.90
19930;DHT22;10127;47.780;9.606;2024-01-06T08:04:08;4.90;99.90
19930;DHT22;10127;47.780;9.606;2024-01-06T08:06:34;4.80;99.90
19930;DHT22;10127;47.780;9.606;2024-01-06T08:09:00;4.80;99.90
19930;DHT22;10127;47.780;9.606;2024-01-06T08:11:25;4.80;99.90
19930;DHT22;10127;47.780;9.606;2024-01-06T08:13:51;4.80;99.90
19930;DHT22;10127;47.780;9.606;2024-01-06T08:16:16;4.70;99.90
19930;DHT22;10127;47.780;9.606;2024-01-06T08:18:42;4.70;99.90
19930;DHT22;10127;47.780;9.606;2024-01-06T08:21:08;4.70;99.90
19930;DHT22;10127;47.780;9.606;2024-01-06T08:23:33;4.60;99.90
19930;DHT22;10127;47.780;9.606;2024-01-06T08:25:59;4.70;99.90
19930;DHT22;10127;47.780;9.606;2024-01-06T08:28:24;4.60;99.90
19930;DHT22;10127;47.780;9.606;2024-01-06T08:30:50;4.60;99.90
19930;DHT22;10127;47.780;9.606;2024-01-06T08:33:16;4.60;99.90
19930;DHT22;10127;47.780;9.606;2024-01-06T08:35:43;4.60;99.90
19930;DHT22;10127;47.780;9.606;2024-01-06T08:38:09;4.70;99.90
19930;DHT22;10127;47.780;9.606;2024-01-06T08:40:35;4.70;99.90
19930;DHT22;10127;47.780;9.606;2024-01-06T08:43:01;4.70;99.90
19930;DHT22;10127;47.780;9.606;2024-01-06T08:45:27;4.80;99.90
19930;DHT22;10127;47.780;9.606;2024-01-06T08:47:53;4.80;99.90
19930;DHT22;10127;47.780;9.606;2024-01-06T08:50:18;4.70;99.90
19930;DHT22;10127;47.780;9.606;2024-01-06T08:52:44;4.70;99.90
19930;DHT22;10127;47.780;9.606;2024-01-06T08:55:09;4.60;99.90
19930;DHT22;10127;47.780;9.606;2024-01-06T08:57:35;4.70;99.90
19930;DHT22;10127;47.780;9.606;2024-01-06T09:00:00;4.70;99.90
19930;DHT22;10127;47.780;9.606;2024-01-06T09:02:26;4.80;99.90
19930;DHT22;10127;47.780;9.606;2024-01-06T09:04:51;4.80;99.90
19930;DHT22;10127;47.780;9.606;2024-01-06T09:07:17;4.90;99.90
19930;DHT22;10127;47.780;9.606;2024-01-06T09:09:43;4.90;99.90
19930;DHT22;10127;47.780;9.606;2024-01-06T09:12:09;5.00;99.90
19930;DHT22;10127;47.780;9.606;2024-01-06T09:14:35;5.00;99.90
19930;DHT22;10127;47.780;9.606;2024-01-06T09:17:00;4.90;99.90
19930;DHT22;10127;47.780;9.606;2024-01-06T09:19:26;4.80;99.90
19930;DHT22;10127;47.780;9.606;2024-01-06T09:21:53;4.80;99.90
19930;DHT22;10127;47.780;9.606;2024-01-06T09:24:20;4.90;99.90
19930;DHT22;10127;47.780;9.606;2024-01-06T09:26:45;4.90;99.90
19930;DHT22;10127;47.780;9.606;2024-01-06T09:29:11;4.90;99.90
19930;DHT22;10127;47.780;9.606;2024-01-06T09:31:37;4.90;99.90
19930;DHT22;10127;47.780;9.606;2024-01-06T09:34:02;5.00;99.90
19930;DHT22;10127;47.780;9.606;2024-01-06T09:36:30;4.90;99.90
19930;DHT22;10127;47.780;9.606;2024-01-06T09:38:56;5.10;99.90
19930;DHT22;10127;47.780;9.606;2024-01-06T09:41:21;5.10;99.90
19930;DHT22;10127;47.780;9.606;2024-01-06T09:43:47;5.30;99.90
19930;DHT22;10127;47.780;9.606;2024-01-06T09:46:31;5.30;99.90
19930;DHT22;10127;47.780;9.606;2024-01-06T09:48:58;5.30;99.90
19930;DHT22;10127;47.780;9.606;2024-01-06T09:51:24;5.30;99.90
19930;DHT22;10127;47.780;9.606;2024-01-06T09:54:01;5.40;99.90
19930;DHT22;10127;47.780;9.606;2024-01-06T09:56:29;5.40;99.90
19930;DHT22;10127;47.780;9.606;2024-01-06T09:58:55;5.50;99.90
19930;DHT22;10127;47.780;9.606;2024-01-06T10:01:21;5.50;99.90
19930;DHT22;10127;47.780;9.606;2024-01-06T10:03:48;5.70;99.90
19930;DHT22;10127;47.780;9.606;2024-01-06T10:06:14;5.80;99.90
19930;DHT22;10127;47.780;9.606;2024-01-06T10:08:43;5.70;99.90
19930;DHT22;10127;47.780;9.606;2024-01-06T10:11:08;5.70;99.90
19930;DHT22;10127;47.780;9.606;2024-01-06T10:13:35;5.70;99.90
19930;DHT22;10127;47.780;9.606;2024-01-06T10:16:00;5.80;99.90
19930;DHT22;10127;47.780;9.606;2024-01-06T10:18:27;5.70;99.90
19930;DHT22;10127;47.780;9.606;2024-01-06T10:20:55;5.60;99.90
19930;DHT22;10127;47.780;9.606;2024-01-06T10:23:23;5.70;99.90
19930;DHT22;10127;47.780;9.606;2024-01-06T10:25:52;5.70;99.90
19930;DHT22;10127;47.780;9.606;2024-01-06T10:28:17;5.70;99.90
19930;DHT22;10127;47.780;9.606;2024-01-06T10:30:43;5.70;99.90
19930;DHT22;10127;47.780;9.606;2024-01-06T10:33:09;5.90;99.90
19930;DHT22;10127;47.780;9.606;2024-01-06T10:35:36;6.00;99.90
19930;DHT22;10127;47.780;9.606;2024-01-06T10:38:02;6.00;99.90
19930;DHT22;10127;47.780;9.606;2024-01-06T10:40:29;6.00;99.90
19930;DHT22;10127;47.780;9.606;2024-01-06T10:42:55;6.00;99.90
19930;DHT22;10127;47.780;9.606;2024-01-06T10:45:23;6.10;99.90
19930;DHT22;10127;47.780;9.606;2024-01-06T10:47:49;6.10;99.90
19930;DHT22;10127;47.780;9.606;2024-01-06T10:50:17;6.10;99.90
19930;DHT22;10127;47.780;9.606;2024-01-06T10:52:43;6.20;99.90
19930;DHT22;10127;47.780;9.606;2024-01-06T10:55:09;6.20;99.90
19930;DHT22;10127;47.780;9.606;2024-01-06T10:57:37;6.20;99.90
19930;DHT22;10127;47.780;9.606;2024-01-06T11:00:03;6.10;99.90
19930;DHT22;10127;47.780;9.606;2024-01-06T11:02:31;6.10;99.90
19930;DHT22;10127;47.780;9.606;2024-01-06T11:04:57;6.20;99.90
19930;DHT22;10127;47.780;9.606;2024-01-06T11:07:24;6.30;99.90
19930;DHT22;10127;47.780;9.606;2024-01-06T11:12:17;6.40;99.90
19930;DHT22;10127;47.780;9.606;2024-01-06T11:14:43;6.40;99.90
19930;DHT22;10127;47.780;9.606;2024-01-06T11:17:08;6.30;99.90
19930;DHT22;10127;47.780;9.606;2024-01-06T11:22:30;6.30;99.90
19930;DHT22;10127;47.780;9.606;2024-01-06T11:27:37;6.10;99.90
19930;DHT22;10127;47.780;9.606;2024-01-06T11:30:04;6.00;99.90
19930;DHT22;10127;47.780;9.606;2024-01-06T11:32:31;6.20;99.90
19930;DHT22;10127;47.780;9.606;2024-01-06T11:35:09;6.10;99.90
19930;DHT22;10127;47.780;9.606;2024-01-06T11:40:32;6.40;99.90
19930;DHT22;10127;47.780;9.606;2024-01-06T11:43:09;6.40;99.90
19930;DHT22;10127;47.780;9.606;2024-01-06T11:45:36;6.20;99.90
19930;DHT22;10127;47.780;9.606;2024-01-06T11:48:06;6.10;99.90
19930;DHT22;10127;47.780;9.606;2024-01-06T11:50:34;6.10;99.90
19930;DHT22;10127;47.780;9.606;2024-01-06T11:53:00;6.20;99.90
19930;DHT22;10127;47.780;9.606;2024-01-06T11:55:27;6.20;99.90
19930;DHT22;10127;47.780;9.606;2024-01-06T11:58:05;6.20;99.90
19930;DHT22;10127;47.780;9.606;2024-01-06T12:00:37;6.10;99.90
19930;DHT22;10127;47.780;9.606;2024-01-06T12:03:04;6.10;99.90
19930;DHT22;10127;47.780;9.606;2024-01-06T12:05:30;6.10;99.90
19930;DHT22;10127;47.780;9.606;2024-01-06T12:08:00;6.10;99.90
19930;DHT22;10127;47.780;9.606;2024-01-06T12:10:28;6.00;99.90
19930;DHT22;10127;47.780;9.606;2024-01-06T12:13:02;6.00;99.90
19930;DHT22;10127;47.780;9.606;2024-01-06T12:15:34;6.10;99.90
19930;DHT22;10127;47.780;9.606;2024-01-06T12:18:03;6.20;99.90
19930;DHT22;10127;47.780;9.606;2024-01-06T12:20:28;6.20;99.90
19930;DHT22;10127;47.780;9.606;2024-01-06T12:22:55;6.40;99.90
19930;DHT22;10127;47.780;9.606;2024-01-06T12:25:22;6.40;99.90
19930;DHT22;10127;47.780;9.606;2024-01-06T12:27:48;6.30;99.90
19930;DHT22;10127;47.780;9.606;2024-01-06T12:30:19;6.50;99.90
19930;DHT22;10127;47.780;9.606;2024-01-06T12:32:46;6.50;99.90
19930;DHT22;10127;47.780;9.606;2024-01-06T12:35:12;6.40;99.90
19930;DHT22;10127;47.780;9.606;2024-01-06T12:37:38;6.40;99.90
19930;DHT22;10127;47.780;9.606;2024-01-06T12:40:05;6.40;99.90
19930;DHT22;10127;47.780;9.606;2024-01-06T12:42:30;6.30;99.90
19930;DHT22;10127;47.780;9.606;2024-01-06T12:44:56;6.30;99.90
19930;DHT22;10127;47.780;9.606;2024-01-06T12:47:29;6.00;99.90
19930;DHT22;10127;47.780;9.606;2024-01-06T12:50:01;5.80;99.90
19930;DHT22;10127;47.780;9.606;2024-01-06T12:52:33;5.80;99.90
19930;DHT22;10127;47.780;9.606;2024-01-06T12:54:59;5.90;99.90
19930;DHT22;10127;47.780;9.606;2024-01-06T12:57:25;5.90;99.90
19930;DHT22;10127;47.780;9.606;2024-01-06T12:59:50;5.80;99.90
19930;DHT22;10127;47.780;9.606;2024-01-06T13:02:16;5.80;99.90
19930;DHT22;10127;47.780;9.606;2024-01-06T13:04:41;5.80;99.90
19930;DHT22;10127;47.780;9.606;2024-01-06T13:07:07;5.80;99.90
19930;DHT22;10127;47.780;9.606;2024-01-06T13:09:32;5.90;99.90
19930;DHT22;10127;47.780;9.606;2024-01-06T13:11:59;5.90;99.90
19930;DHT22;10127;47.780;9.606;2024-01-06T13:14:26;5.80;99.90
19930;DHT22;10127;47.780;9.606;2024-01-06T13:16:52;5.70;99.90
19930;DHT22;10127;47.780;9.606;2024-01-06T13:19:18;5.70;99.90
19930;DHT22;10127;47.780;9.606;2024-01-06T13:21:44;5.70;99.90
19930;DHT22;10127;47.780;9.606;2024-01-06T13:24:10;5.80;99.90
19930;DHT22;10127;47.780;9.606;2024-01-06T13:26:37;5.70;99.90
19930;DHT22;10127;47.780;9.606;2024-01-06T13:29:03;5.70;99.90
19930;DHT22;10127;47.780;9.606;2024-01-06T13:31:28;5.80;99.90
19930;DHT22;10127;47.780;9.606;2024-01-06T13:33:54;5.80;99.90
19930;DHT22;10127;47.780;9.606;2024-01-06T13:36:21;5.70;99.90
19930;DHT22;10127;47.780;9.606;2024-01-06T13:38:46;5.70;99.90
19930;DHT22;10127;47.780;9.606;2024-01-06T13:41:14;5.80;99.90
19930;DHT22;10127;47.780;9.606;2024-01-06T13:43:39;5.90;99.90
19930;DHT22;10127;47.780;9.606;2024-01-06T13:46:05;5.80;99.90
19930;DHT22;10127;47.780;9.606;2024-01-06T13:48:30;5.90;99.90
19930;DHT22;10127;47.780;9.606;2024-01-06T13:50:57;6.00;99.90
19930;DHT22;10127;47.780;9.606;2024-01-06T13:53:22;5.80;99.90
19930;DHT22;10127;47.780;9.606;2024-01-06T13:55:48;5.80;99.90
19930;DHT22;10127;47.780;9.606;2024-01-06T13:58:13;5.80;99.90
19930;DHT22;10127;47.780;9.606;2024-01-06T14:00:39;5.90;99.90
19930;DHT22;10127;47.780;9.606;2024-01-06T14:03:05;5.80;99.90
19930;DHT22;10127;47.780;9.606;2024-01-06T14:05:32;5.90;99.90
19930;DHT22;10127;47.780;9.606;2024-01-06T14:07:58;5.90;99.90
19930;DHT22;10127;47.780;9.606;2024-01-06T14:10:24;5.90;99.90
19930;DHT22;10127;47.780;9.606;2024-01-06T14:12:49;5.80;99.90
19930;DHT22;10127;47.780;9.606;2024-01-06T14:15:15;5.70;99.90
19930;DHT22;10127;47.780;9.606;2024-01-06T14:17:41;5.80;99.90
19930;DHT22;10127;47.780;9.606;2024-01-06T14:20:07;5.80;99.90
19930;DHT22;10127;47.780;9.606;2024-01-06T14:22:34;5.80;99.90
19930;DHT22;10127;47.780;9.606;2024-01-06T14:25:00;5.80;99.90
19930;DHT22;10127;47.780;9.606;2024-01-06T14:27:26;5.70;99.90
19930;DHT22;10127;47.780;9.606;2024-01-06T14:29:51;5.70;99.90
19930;DHT22;10127;47.780;9.606;2024-01-06T14:32:21;5.70;99.90
19930;DHT22;10127;47.780;9.606;2024-01-06T14:34:46;5.70;99.90
19930;DHT22;10127;47.780;9.606;2024-01-06T14:37:12;5.60;99.90
19930;DHT22;10127;47.780;9.606;2024-01-06T14:39:37;5.50;99.90
19930;DHT22;10127;47.780;9.606;2024-01-06T14:42:03;5.50;99.90
19930;DHT22;10127;47.780;9.606;2024-01-06T14:44:29;5.60;99.90
19930;DHT22;10127;47.780;9.606;2024-01-06T14:46:55;5.60;99.90
19930;DHT22;10127;47.780;9.606;2024-01-06T14:49:20;5.70;99.90
19930;DHT22;10127;47.780;9.606;2024-01-06T14:51:46;5.60;99.90
19930;DHT22;10127;47.780;9.606;2024-01-06T14:54:12;5.50;99.90
19930;DHT22;10127;47.780;9.606;2024-01-06T14:56:38;5.50;99.90
19930;DHT22;10127;47.780;9.606;2024-01-06T14:59:07;5.50;99.90
19930;DHT22;10127;47.780;9.606;2024-01-06T15:01:33;5.50;99.90
19930;DHT22;10127;47.780;9.606;2024-01-06T15:03:58;5.50;99.90
19930;DHT22;10127;47.780;9.606;2024-01-06T15:06:24;5.50;99.90
19930;DHT22;10127;47.780;9.606;2024-01-06T15:08:49;5.50;99.90
19930;DHT22;10127;47.780;9.606;2024-01-06T15:11:15;5.60;99.90
19930;DHT22;10127;47.780;9.606;2024-01-06T15:13:41;5.50;99.90
19930;DHT22;10127;47.780;9.606;2024-01-06T15:16:07;5.50;99.90
19930;DHT22;10127;47.780;9.606;2024-01-06T15:18:33;5.50;99.90
19930;DHT22;10127;47.780;9.606;2024-01-06T15:20:58;5.50;99.90
19930;DHT22;10127;47.780;9.606;2024-01-06T15:23:24;5.50;99.90
19930;DHT22;10127;47.780;9.606;2024-01-06T15:25:50;5.50;99.90
19930;DHT22;10127;47.780;9.606;2024-01-06T15:28:15;5.60;99.90
19930;DHT22;10127;47.780;9.606;2024-01-06T15:30:41;5.60;99.90
19930;DHT22;10127;47.780;9.606;2024-01-06T15:33:07;5.50;99.90
19930;DHT22;10127;47.780;9.606;2024-01-06T15:35:32;5.50;99.90
19930;DHT22;10127;47.780;9.606;2024-01-06T15:37:58;5.40;99.90
19930;DHT22;10127;47.780;9.606;2024-01-06T15:40:23;5.40;99.90
19930;DHT22;10127;47.780;9.606;2024-01-06T15:42:49;5.40;99.90
19930;DHT22;10127;47.780;9.606;2024-01-06T15:45:15;5.30;99.90
19930;DHT22;10127;47.780;9.606;2024-01-06T15:47:41;5.30;99.90
19930;DHT22;10127;47.780;9.606;2024-01-06T15:50:07;5.30;99.90